Time;durP1;ratioP1;P1;durP2;ratioP2;P2;SDS_P1;SDS_P2;PMS_P1;PMS_P2;Temp;Humidity;BMP_temperature;BMP_pressure;BME280_temperature;BME280_humidity;BME280_pressure;Samples;Min_cycle;Max_cycle;Signal;HPM_P1;HPM_P2
2021/09/12 00:02:20;;;;;;;1.40;1.00;;;;;;;23.24;55.63;101730.63;5067401;28;20043;-65
2021/09/12 00:04:46;;;;;;;1.95;1.08;;;;;;;23.24;55.64;101719.09;5070938;28;20090;-65
2021/09/12 00:07:12;;;;;;;2.35;1.20;;;;;;;23.23;55.68;101718.25;5049396;28;20152;-65
2021/09/12 00:09:37;;;;;;;2.90;1.10;;;;;;;23.25;55.50;101723.41;5062859;28;20036;-65
2021/09/12 00:12:04;;;;;;;2.70;1.20;;;;;;;23.24;55.58;101716.41;5069817;28;20490;-65
2021/09/12 00:14:29;;;;;;;1.80;1.00;;;;;;;23.25;55.33;101718.88;5070421;28;20075;-65
2021/09/12 00:16:55;;;;;;;1.63;0.98;;;;;;;23.24;55.30;101714.56;5071013;28;20472;-65
2021/09/12 00:19:20;;;;;;;1.45;0.98;;;;;;;23.24;55.37;101721.75;5068168;28;20095;-65
2021/09/12 00:21:46;;;;;;;1.67;1.10;;;;;;;23.24;55.58;101722.59;5068868;28;20116;-65
2021/09/12 00:24:11;;;;;;;2.25;1.20;;;;;;;23.24;55.42;101722.59;5069678;28;20418;-65
2021/09/12 00:26:37;;;;;;;1.88;1.30;;;;;;;23.25;55.62;101720.75;5070164;28;20040;-64
2021/09/12 00:29:04;;;;;;;1.40;0.90;;;;;;;23.24;55.49;101727.13;5067746;28;20032;-64
2021/09/12 00:31:29;;;;;;;2.28;1.30;;;;;;;23.24;55.64;101725.28;5069991;28;20036;-65
2021/09/12 00:33:55;;;;;;;1.70;1.00;;;;;;;23.25;55.39;101723.41;5069769;28;20059;-64
2021/09/12 00:36:21;;;;;;;2.53;1.25;;;;;;;23.24;55.59;101732.47;5070509;28;20082;-65
2021/09/12 00:38:47;;;;;;;1.83;1.10;;;;;;;23.24;55.73;101725.28;5070519;28;20387;-65
2021/09/12 00:41:12;;;;;;;1.42;1.17;;;;;;;23.24;55.69;101719.91;5069800;28;20032;-65
2021/09/12 00:43:38;;;;;;;1.90;1.10;;;;;;;23.25;55.50;101720.75;5070064;28;20051;-65
2021/09/12 00:46:06;;;;;;;2.63;1.20;;;;;;;23.24;55.67;101717.25;5070085;28;20507;-65
2021/09/12 00:48:34;;;;;;;1.77;1.20;;;;;;;23.25;55.76;101712.72;5068159;28;20048;-65
2021/09/12 00:51:00;;;;;;;1.55;1.15;;;;;;;23.24;55.81;101719.91;5070216;28;20111;-65
2021/09/12 00:53:34;;;;;;;1.20;0.90;;;;;;;23.24;55.61;101717.25;5068076;28;20129;-65
2021/09/12 00:56:00;;;;;;;1.52;1.15;;;;;;;23.24;55.69;101719.91;5070166;28;20543;-65
2021/09/12 00:58:31;;;;;;;2.90;1.20;;;;;;;23.25;55.85;101732.28;5069344;28;20033;-65
2021/09/12 01:00:56;;;;;;;1.60;1.00;;;;;;;23.24;55.64;101725.28;5068635;28;20032;-65
2021/09/12 01:03:23;;;;;;;1.67;1.00;;;;;;;23.24;56.02;101730.63;5066238;28;20098;-65
2021/09/12 01:05:48;;;;;;;2.20;1.25;;;;;;;23.24;55.48;101730.63;5068779;28;20032;-64
2021/09/12 01:08:14;;;;;;;1.42;1.00;;;;;;;23.25;55.77;101731.44;5047863;28;20756;-65
2021/09/12 01:10:41;;;;;;;1.48;1.05;;;;;;;23.24;55.71;101730.63;5068090;28;20063;-65
2021/09/12 01:13:07;;;;;;;1.67;1.15;;;;;;;23.24;55.62;101729.78;5069361;28;20037;-64
2021/09/12 01:15:33;;;;;;;1.65;1.00;;;;;;;23.24;55.87;101735.16;5066633;28;20035;-65
2021/09/12 01:18:00;;;;;;;2.35;1.08;;;;;;;23.25;55.86;101731.44;5069426;28;20062;-64
2021/09/12 01:20:25;;;;;;;1.35;1.00;;;;;;;23.25;55.65;101723.41;5068883;28;20032;-65
2021/09/12 01:22:52;;;;;;;2.20;1.10;;;;;;;23.24;55.80;101722.59;5067590;28;20102;-65
2021/09/12 01:25:18;;;;;;;3.75;1.20;;;;;;;23.24;55.71;101719.91;5067111;28;20439;-65
2021/09/12 01:27:44;;;;;;;1.33;1.08;;;;;;;23.25;55.64;101721.56;5067908;28;20472;-65
2021/09/12 01:30:10;;;;;;;1.92;1.20;;;;;;;23.24;56.02;101727.94;5067074;28;20099;-63
2021/09/12 01:32:36;;;;;;;1.70;1.10;;;;;;;23.24;55.95;101730.63;5068897;28;20122;-65
2021/09/12 01:35:03;;;;;;;1.35;0.98;;;;;;;23.24;55.91;101733.31;5068987;28;20040;-65
2021/09/12 01:37:29;;;;;;;1.23;0.90;;;;;;;23.24;55.68;101740.50;5067447;28;20036;-64
2021/09/12 01:39:55;;;;;;;2.15;1.20;;;;;;;23.24;55.73;101743.19;5048058;28;20048;-64
2021/09/12 01:42:20;;;;;;;1.83;1.10;;;;;;;23.24;55.89;101738.66;5064498;28;20174;-65
2021/09/12 01:44:50;;;;;;;1.38;1.00;;;;;;;23.23;55.63;101739.69;5069093;28;20490;-65
2021/09/12 01:47:17;;;;;;;1.02;0.93;;;;;;;23.24;55.97;101741.34;5069117;28;20575;-64
2021/09/12 01:49:43;;;;;;;2.22;1.25;;;;;;;23.24;55.92;101735.16;5068779;28;20036;-64
2021/09/12 01:52:13;;;;;;;1.13;0.90;;;;;;;23.22;55.90;101735.34;5069399;28;20036;-65
2021/09/12 01:54:39;;;;;;;1.45;1.08;;;;;;;23.24;55.92;101737.81;5068805;28;20032;-65
2021/09/12 01:57:05;;;;;;;1.73;1.00;;;;;;;23.24;55.96;101733.31;5069098;28;20039;-65
2021/09/12 01:59:31;;;;;;;1.45;1.00;;;;;;;23.24;56.12;101732.47;5066226;28;20966;-65
2021/09/12 02:01:57;;;;;;;1.67;1.00;;;;;;;23.24;56.24;101730.63;5067910;28;20044;-65
2021/09/12 02:04:22;;;;;;;2.17;1.10;;;;;;;23.24;56.00;101735.97;5067785;28;20025;-64
2021/09/12 02:06:48;;;;;;;1.48;1.10;;;;;;;23.23;56.20;101745.03;5068481;28;20178;-64
2021/09/12 02:09:13;;;;;;;1.67;1.02;;;;;;;23.24;55.92;101746.69;5066968;28;20029;-65
2021/09/12 02:11:39;;;;;;;0.82;0.75;;;;;;;23.24;56.09;101749.38;5068621;28;20043;-64
2021/09/12 02:14:04;;;;;;;1.80;1.02;;;;;;;23.24;56.03;101749.38;5068328;28;20040;-64
2021/09/12 02:16:30;;;;;;;1.13;0.90;;;;;;;23.24;56.10;101738.66;5067325;28;20033;-64
2021/09/12 02:18:55;;;;;;;1.95;0.98;;;;;;;23.23;56.11;101739.69;5065849;28;20032;-65
2021/09/12 02:21:21;;;;;;;1.50;1.08;;;;;;;23.24;55.92;101743.19;5067059;28;20071;-64
2021/09/12 02:23:47;;;;;;;1.73;0.98;;;;;;;23.24;56.04;101745.84;5066305;28;20064;-65
2021/09/12 02:26:12;;;;;;;1.00;0.75;;;;;;;23.24;56.26;101757.41;5065980;28;20448;-63
2021/09/12 02:28:38;;;;;;;1.90;1.00;;;;;;;23.22;55.89;101756.78;5065481;28;20038;-65
2021/09/12 02:31:03;;;;;;;1.73;0.90;;;;;;;23.23;56.20;101761.09;5067732;28;20028;-65
2021/09/12 02:33:29;;;;;;;1.40;0.98;;;;;;;23.23;56.05;101758.41;5065149;28;20119;-65
2021/09/12 02:35:55;;;;;;;1.63;1.10;;;;;;;23.24;56.05;101754.72;5066444;28;20472;-65
2021/09/12 02:38:20;;;;;;;2.10;1.00;;;;;;;23.24;56.04;101754.72;5067665;28;20030;-65
2021/09/12 02:40:46;;;;;;;1.17;0.98;;;;;;;23.23;56.27;101747.72;5065907;28;20418;-65
2021/09/12 02:43:11;;;;;;;1.30;1.00;;;;;;;23.23;56.15;101745.03;5065778;28;20137;-65
2021/09/12 02:45:37;;;;;;;1.60;1.05;;;;;;;23.23;56.09;101750.38;5066045;28;20055;-65
2021/09/12 02:48:03;;;;;;;1.75;1.00;;;;;;;23.23;55.97;101750.38;5065992;28;20447;-65
2021/09/12 02:50:28;;;;;;;1.58;0.90;;;;;;;23.23;55.89;101739.69;5067353;28;20040;-65
2021/09/12 02:52:54;;;;;;;1.52;0.82;;;;;;;23.23;56.19;101734.31;5067611;28;20081;-65
2021/09/12 02:55:19;;;;;;;1.45;1.10;;;;;;;23.22;56.23;101727.31;5048885;28;20099;-65
2021/09/12 02:57:45;;;;;;;1.25;0.90;;;;;;;23.23;56.03;101737.00;5065940;28;20032;-65
2021/09/12 03:00:11;;;;;;;3.03;1.10;;;;;;;23.22;56.35;101732.69;5046305;28;20049;-65
2021/09/12 03:02:36;;;;;;;1.42;1.02;;;;;;;23.22;56.04;101732.69;5067325;28;20041;-65
2021/09/12 03:05:02;;;;;;;2.22;1.00;;;;;;;23.22;56.05;101735.34;5067056;28;20036;-65
2021/09/12 03:07:28;;;;;;;1.65;1.10;;;;;;;23.22;55.94;101732.69;5066165;28;20571;-65
2021/09/12 03:09:53;;;;;;;1.27;0.95;;;;;;;23.22;56.01;101738.03;5049366;28;20040;-65
2021/09/12 03:12:18;;;;;;;1.60;1.00;;;;;;;23.22;55.95;101737.22;5066928;28;20024;-64
2021/09/12 03:14:45;;;;;;;1.52;0.95;;;;;;;23.22;56.11;101740.72;5048632;28;20032;-64
2021/09/12 03:17:12;;;;;;;1.15;0.90;;;;;;;23.22;56.21;101740.72;5049481;28;20033;-65
2021/09/12 03:19:38;;;;;;;1.00;0.90;;;;;;;23.22;55.81;101742.56;5066546;28;20089;-65
2021/09/12 03:22:04;;;;;;;1.50;1.00;;;;;;;23.22;55.82;101747.91;5049551;28;20032;-65
2021/09/12 03:24:29;;;;;;;2.42;1.00;;;;;;;23.21;55.92;101741.72;5066222;28;20040;-65
2021/09/12 03:26:55;;;;;;;1.40;1.02;;;;;;;23.21;55.94;101755.13;5067302;28;20040;-65
2021/09/12 03:29:20;;;;;;;1.73;1.15;;;;;;;23.20;55.92;101740.09;5048266;28;20024;-64
2021/09/12 03:31:46;;;;;;;2.05;1.10;;;;;;;23.22;55.81;101748.75;5032248;28;20866;-65
2021/09/12 03:34:11;;;;;;;1.20;1.00;;;;;;;23.22;55.92;101755.94;5067112;28;20051;-65
2021/09/12 03:36:37;;;;;;;1.73;0.90;;;;;;;23.21;55.73;101756.97;5032867;28;20468;-65
2021/09/12 03:39:04;;;;;;;1.20;1.02;;;;;;;23.20;55.97;101748.13;5070662;28;20336;-65
2021/09/12 03:41:29;;;;;;;1.88;0.95;;;;;;;23.20;55.88;101748.13;5053226;28;20029;-64
2021/09/12 03:43:55;;;;;;;1.77;0.95;;;;;;;23.21;55.85;101739.06;5070981;28;20039;-64
2021/09/12 03:46:20;;;;;;;1.30;0.85;;;;;;;23.20;56.03;101742.75;5071525;28;20120;-64
2021/09/12 03:48:46;;;;;;;1.20;0.90;;;;;;;23.20;55.85;101745.44;5052997;28;20491;-65
2021/09/12 03:51:11;;;;;;;1.40;1.00;;;;;;;23.20;55.77;101742.75;5071069;28;20047;-65
2021/09/12 03:53:37;;;;;;;1.45;1.10;;;;;;;23.20;55.83;101749.97;5070856;28;20055;-64
2021/09/12 03:56:03;;;;;;;1.30;1.02;;;;;;;23.20;55.77;101744.63;5070346;28;20376;-65
2021/09/12 03:58:28;;;;;;;1.27;1.00;;;;;;;23.19;55.83;101751.78;5069877;28;20033;-64
2021/09/12 04:00:54;;;;;;;1.25;1.00;;;;;;;23.20;55.92;101761.50;5070373;28;20128;-65
2021/09/12 04:03:19;;;;;;;1.63;1.00;;;;;;;23.20;56.14;101750.78;5070888;28;20032;-65
2021/09/12 04:05:45;;;;;;;1.67;0.85;;;;;;;23.19;55.82;101765.16;5052979;28;20043;-65
2021/09/12 04:08:10;;;;;;;1.35;0.85;;;;;;;23.19;55.96;101762.50;5060771;28;20047;-65
2021/09/12 04:10:36;;;;;;;1.25;0.98;;;;;;;23.19;56.08;101765.16;5071152;28;20194;-65
2021/09/12 04:13:01;;;;;;;0.95;0.88;;;;;;;23.19;56.05;101751.78;5070572;28;20535;-65
2021/09/12 04:15:27;;;;;;;1.45;1.00;;;;;;;23.20;56.22;101766.84;5061722;28;20036;-65
2021/09/12 04:17:53;;;;;;;1.13;0.90;;;;;;;23.20;56.26;101766.84;5070508;28;20032;-65
2021/09/12 04:20:18;;;;;;;2.25;1.00;;;;;;;23.20;56.29;101766.03;5068671;28;20501;-63
2021/09/12 04:22:43;;;;;;;0.95;0.82;;;;;;;23.20;56.49;101761.50;5070329;28;20082;-65
2021/09/12 04:25:09;;;;;;;1.70;1.00;;;;;;;23.20;56.41;101766.03;5069857;28;20039;-65
2021/09/12 04:27:35;;;;;;;1.40;0.90;;;;;;;23.19;56.15;101754.47;5068375;28;20037;-65
2021/09/12 04:30:01;;;;;;;1.23;0.95;;;;;;;23.19;56.15;101741.06;5069598;28;20021;-65
2021/09/12 04:32:26;;;;;;;1.63;1.08;;;;;;;23.20;56.40;101749.97;5068256;28;20035;-64
2021/09/12 04:34:52;;;;;;;1.20;0.80;;;;;;;23.19;56.09;101757.13;5067691;28;20396;-65
2021/09/12 04:37:17;;;;;;;1.30;0.95;;;;;;;23.19;56.19;101754.47;5069481;28;20472;-64
2021/09/12 04:39:43;;;;;;;1.25;1.10;;;;;;;23.18;56.31;101752.81;5069095;28;20520;-65
2021/09/12 04:42:09;;;;;;;1.50;1.00;;;;;;;23.20;56.07;101763.34;5070033;28;20040;-65
2021/09/12 04:44:35;;;;;;;1.40;0.95;;;;;;;23.19;56.41;101759.00;5069969;28;20469;-65
2021/09/12 04:47:00;;;;;;;1.10;0.90;;;;;;;23.19;56.19;101759.81;5068569;28;20067;-64
2021/09/12 04:49:26;;;;;;;1.08;0.90;;;;;;;23.18;56.22;101755.50;5067628;28;20066;-65
2021/09/12 04:51:52;;;;;;;1.55;1.00;;;;;;;23.19;56.52;101750.97;5068504;28;20043;-64
2021/09/12 04:54:17;;;;;;;1.40;0.90;;;;;;;23.18;56.44;101750.13;5069450;28;20193;-65
2021/09/12 04:56:43;;;;;;;1.27;0.90;;;;;;;23.19;56.37;101748.28;5069656;28;20454;-65
2021/09/12 04:59:08;;;;;;;1.42;1.00;;;;;;;23.18;56.24;101752.81;5067774;28;20044;-65
2021/09/12 05:01:34;;;;;;;1.80;1.00;;;;;;;23.17;56.45;101748.47;5067548;28;20044;-65
2021/09/12 05:04:00;;;;;;;1.17;0.95;;;;;;;23.18;56.28;101747.47;5069078;28;20426;-63
2021/09/12 05:06:26;;;;;;;1.40;0.90;;;;;;;23.19;56.43;101748.28;5069308;28;20071;-65
2021/09/12 05:08:51;;;;;;;1.48;1.05;;;;;;;23.18;56.02;101752.81;5067546;28;20068;-65
2021/09/12 05:11:17;;;;;;;0.90;0.80;;;;;;;23.18;56.46;101754.66;5069770;28;20437;-65
2021/09/12 05:13:42;;;;;;;1.67;0.90;;;;;;;23.17;56.32;101756.50;5068845;28;20468;-65
2021/09/12 05:16:08;;;;;;;1.27;1.08;;;;;;;23.18;56.16;101752.00;5068202;28;20116;-65
2021/09/12 05:18:33;;;;;;;1.85;1.20;;;;;;;23.18;56.54;101752.00;5067209;28;20086;-65
2021/09/12 05:20:59;;;;;;;1.02;0.90;;;;;;;23.17;56.52;101753.84;5069544;28;20032;-64
2021/09/12 05:23:24;;;;;;;1.60;1.10;;;;;;;23.17;56.45;101756.50;5068643;28;20089;-65
2021/09/12 05:25:53;;;;;;;1.45;1.10;;;;;;;23.17;56.35;101761.03;5068337;28;20037;-65
2021/09/12 05:28:18;;;;;;;1.27;0.90;;;;;;;23.16;56.26;101757.53;5066173;28;20047;-65
2021/09/12 05:30:44;;;;;;;1.35;0.98;;;;;;;23.16;56.49;101762.91;5062329;28;20060;-65
2021/09/12 05:33:09;;;;;;;1.15;0.80;;;;;;;23.17;56.08;101767.22;5066718;28;20036;-64
2021/09/12 05:35:35;;;;;;;1.20;1.10;;;;;;;23.16;56.07;101768.25;5067482;28;20368;-65
2021/09/12 05:38:00;;;;;;;1.17;1.05;;;;;;;23.16;56.39;101760.22;5067619;28;20028;-64
2021/09/12 05:40:26;;;;;;;1.25;1.10;;;;;;;23.15;56.24;101758.56;5067431;28;20540;-65
2021/09/12 05:42:51;;;;;;;1.30;0.95;;;;;;;23.16;56.30;101767.41;5069123;28;20040;-65
2021/09/12 05:45:17;;;;;;;1.42;0.90;;;;;;;23.16;56.03;101775.44;5068355;28;20032;-65
2021/09/12 05:47:42;;;;;;;1.50;1.10;;;;;;;23.15;56.38;101776.47;5068325;28;20127;-65
2021/09/12 05:50:08;;;;;;;1.17;0.88;;;;;;;23.16;55.96;101775.44;5067778;28;20039;-67
2021/09/12 05:52:35;;;;;;;1.27;0.90;;;;;;;23.16;56.02;101776.28;5053535;28;20032;-65
2021/09/12 05:55:01;;;;;;;1.42;1.00;;;;;;;23.15;56.30;101771.13;5046860;28;20068;-65
2021/09/12 05:57:26;;;;;;;1.58;0.95;;;;;;;23.14;56.27;101772.97;5064484;28;20498;-65
2021/09/12 05:59:52;;;;;;;1.00;0.88;;;;;;;23.15;56.44;101779.97;5067273;28;20039;-65
2021/09/12 06:02:18;;;;;;;1.40;0.90;;;;;;;23.15;56.45;101779.16;5065911;28;20055;-64
2021/09/12 06:04:44;;;;;;;1.48;1.00;;;;;;;23.14;56.56;101786.34;5067318;28;20043;-65
2021/09/12 06:07:10;;;;;;;1.10;0.90;;;;;;;23.16;56.37;101786.16;5066549;28;20048;-65
2021/09/12 06:09:36;;;;;;;1.40;0.70;;;;;;;23.15;56.49;101784.50;5066414;28;20043;-65
2021/09/12 06:12:02;;;;;;;1.25;0.98;;;;;;;23.15;56.44;101784.50;5068099;28;20037;-65
2021/09/12 06:14:28;;;;;;;2.17;1.02;;;;;;;23.14;56.40;101789.03;5067003;28;20175;-65
2021/09/12 06:16:53;;;;;;;1.10;0.88;;;;;;;23.14;56.24;101790.88;5066627;28;20048;-65
2021/09/12 06:19:18;;;;;;;1.23;1.00;;;;;;;23.15;56.63;101800.56;5067230;28;20589;-65
2021/09/12 06:21:44;;;;;;;1.10;1.00;;;;;;;23.14;56.33;101798.91;5067971;28;20064;-65
2021/09/12 06:24:09;;;;;;;0.93;0.82;;;;;;;23.14;56.48;101804.28;5046707;28;20060;-64
2021/09/12 06:26:35;;;;;;;1.30;0.90;;;;;;;23.14;56.65;101809.63;5065795;28;20025;-65
2021/09/12 06:29:01;;;;;;;1.42;1.00;;;;;;;23.14;56.42;101804.28;5067459;28;20499;-65
2021/09/12 06:31:27;;;;;;;1.08;0.90;;;;;;;23.13;56.40;101811.47;5066645;28;20055;-64
2021/09/12 06:33:53;;;;;;;1.52;1.00;;;;;;;23.13;56.36;101814.16;5068000;28;20029;-64
2021/09/12 06:36:18;;;;;;;1.65;0.90;;;;;;;23.14;56.56;101813.13;5068811;28;20101;-65
2021/09/12 06:38:45;;;;;;;1.45;1.08;;;;;;;23.14;56.76;101812.28;5066938;28;20472;-65
2021/09/12 06:41:11;;;;;;;1.50;0.90;;;;;;;23.14;56.65;101823.00;5067096;28;20040;-65
2021/09/12 06:43:36;;;;;;;2.35;1.00;;;;;;;23.13;56.70;101819.50;5067234;28;20150;-65
2021/09/12 06:46:02;;;;;;;1.30;1.00;;;;;;;23.14;56.70;101823.00;5067300;28;20037;-64
2021/09/12 06:48:27;;;;;;;1.40;1.10;;;;;;;23.13;56.68;101824.84;5066231;28;20040;-64
2021/09/12 06:50:53;;;;;;;1.30;0.93;;;;;;;23.13;56.59;101824.84;5066655;28;20178;-65
2021/09/12 06:53:19;;;;;;;1.30;0.90;;;;;;;23.13;56.61;101830.22;5068349;28;20152;-64
2021/09/12 06:55:45;;;;;;;1.25;0.80;;;;;;;23.13;56.66;101830.22;5066376;28;20158;-65
2021/09/12 06:58:10;;;;;;;1.75;0.90;;;;;;;23.12;56.39;101831.22;5049652;28;20446;-64
2021/09/12 07:00:36;;;;;;;1.02;0.90;;;;;;;23.14;56.65;101836.38;5067209;28;20020;-65
2021/09/12 07:03:02;;;;;;;1.35;1.08;;;;;;;23.13;56.55;101840.91;5067953;28;20142;-63
2021/09/12 07:05:27;;;;;;;1.45;1.10;;;;;;;23.12;56.64;101838.44;5066612;28;20055;-63
2021/09/12 07:07:53;;;;;;;1.48;0.80;;;;;;;23.12;56.93;101839.25;5064632;28;20052;-63
2021/09/12 07:10:18;;;;;;;1.98;0.80;;;;;;;23.12;56.78;101836.59;5066122;28;20032;-65
2021/09/12 07:12:45;;;;;;;2.60;1.30;;;;;;;23.12;56.88;101839.25;5066290;28;20722;-65
2021/09/12 07:15:11;;;;;;;2.15;1.27;;;;;;;23.11;56.84;101832.25;5068455;28;20032;-63
2021/09/12 07:17:37;;;;;;;2.92;1.40;;;;;;;23.11;57.06;101834.94;5066459;28;20464;-62
2021/09/12 07:20:03;;;;;;;3.45;1.20;;;;;;;23.11;57.09;101839.47;5068021;28;20047;-63
2021/09/12 07:22:28;;;;;;;2.22;1.05;;;;;;;23.11;57.06;101834.94;5068532;28;20501;-63
2021/09/12 07:24:54;;;;;;;4.38;1.23;;;;;;;23.10;57.06;101833.28;5067752;28;20024;-63
2021/09/12 07:27:19;;;;;;;3.53;1.00;;;;;;;23.10;56.72;101841.31;5068913;28;20120;-62
2021/09/12 07:29:45;;;;;;;2.58;1.13;;;;;;;23.09;56.60;101839.66;5068559;28;20356;-62
2021/09/12 07:32:10;;;;;;;2.38;1.35;;;;;;;23.10;56.36;101845.84;5070632;28;20107;-63
2021/09/12 07:34:36;;;;;;;4.47;1.20;;;;;;;23.08;56.22;101851.38;5067746;28;20067;-62
2021/09/12 07:37:01;;;;;;;3.20;1.13;;;;;;;23.08;56.27;101859.41;5069403;28;20075;-63
2021/09/12 07:39:27;;;;;;;3.72;1.20;;;;;;;23.07;55.98;101855.09;5072380;28;20032;-65
2021/09/12 07:41:52;;;;;;;1.30;0.90;;;;;;;23.08;55.92;101847.88;5064354;28;20063;-64
2021/09/12 07:44:18;;;;;;;2.28;1.10;;;;;;;23.07;55.84;101852.41;5070918;28;20110;-67
2021/09/12 07:46:43;;;;;;;1.90;1.15;;;;;;;23.07;56.02;101855.09;5071705;28;20524;-63
2021/09/12 07:49:09;;;;;;;3.80;1.30;;;;;;;23.07;56.13;101851.59;5070897;28;20043;-64
2021/09/12 07:51:34;;;;;;;2.72;1.30;;;;;;;23.07;56.10;101852.41;5071143;28;20036;-64
2021/09/12 07:54:00;;;;;;;1.77;1.10;;;;;;;23.06;55.92;101853.44;5070521;28;20111;-64
2021/09/12 07:56:25;;;;;;;2.63;0.93;;;;;;;23.07;55.68;101855.09;5069092;28;20028;-64
2021/09/12 07:58:50;;;;;;;3.63;1.20;;;;;;;23.06;55.41;101848.09;5069519;28;20419;-65
2021/09/12 08:01:16;;;;;;;2.50;1.10;;;;;;;23.06;55.39;101848.09;5064421;28;20119;-60
2021/09/12 08:03:41;;;;;;;1.48;0.90;;;;;;;23.06;55.36;101848.09;5063959;28;20151;-60
2021/09/12 08:06:07;;;;;;;3.25;1.10;;;;;;;23.05;55.29;101843.75;5067942;28;20086;-61
2021/09/12 08:08:32;;;;;;;2.78;1.10;;;;;;;23.05;55.35;101843.75;5066624;28;20049;-60
2021/09/12 08:10:58;;;;;;;2.83;0.93;;;;;;;23.04;54.96;101850.13;5067089;28;20064;-61
2021/09/12 08:13:23;;;;;;;2.67;1.15;;;;;;;23.05;54.96;101849.09;5062550;28;20120;-61
2021/09/12 08:15:49;;;;;;;3.13;1.30;;;;;;;23.03;54.68;101856.47;5067084;28;20029;-60
2021/09/12 08:18:16;;;;;;;1.33;0.82;;;;;;;23.03;54.91;101859.16;5067262;28;20049;-60
2021/09/12 08:20:42;;;;;;;2.15;1.00;;;;;;;23.03;54.97;101861.81;5067994;28;20148;-61
2021/09/12 08:23:07;;;;;;;4.00;1.00;;;;;;;23.01;54.50;101866.56;5063767;28;20044;-61
2021/09/12 08:25:33;;;;;;;1.80;1.23;;;;;;;23.01;54.56;101874.59;5065863;28;20037;-61
2021/09/12 08:27:58;;;;;;;2.45;1.30;;;;;;;23.00;54.18;101876.44;5066700;28;20045;-61
2021/09/12 08:30:24;;;;;;;2.65;1.10;;;;;;;23.00;53.95;101879.09;5066971;28;20427;-63
2021/09/12 08:32:49;;;;;;;4.32;1.50;;;;;;;22.99;53.83;101876.63;5068514;28;20114;-61
2021/09/12 08:35:15;;;;;;;2.60;1.30;;;;;;;22.97;53.90;101881.34;5069898;28;20033;-61
2021/09/12 08:37:40;;;;;;;2.65;1.02;;;;;;;22.97;53.58;101892.06;5069577;28;20037;-61
2021/09/12 08:40:07;;;;;;;3.08;1.20;;;;;;;22.95;53.25;101891.41;5069352;28;20047;-61
2021/09/12 08:42:32;;;;;;;2.20;1.30;;;;;;;22.96;53.01;101893.06;5070283;28;20039;-61
2021/09/12 08:44:58;;;;;;;4.03;1.38;;;;;;;22.93;52.94;101888.94;5069851;28;20476;-61
2021/09/12 08:47:26;;;;;;;8.32;2.28;;;;;;;22.92;52.83;101894.50;5070397;28;20099;-61
2021/09/12 08:49:52;;;;;;;10.52;2.72;;;;;;;22.91;52.84;101899.00;5069662;28;20067;-61
2021/09/12 08:52:18;;;;;;;7.45;2.55;;;;;;;22.91;53.00;101907.03;5070348;28;20037;-61
2021/09/12 08:54:44;;;;;;;7.65;2.40;;;;;;;22.90;52.89;101902.72;5070149;28;20024;-61
2021/09/12 08:57:09;;;;;;;7.13;2.78;;;;;;;22.90;53.00;101910.75;5070262;28;20068;-62
2021/09/12 08:59:35;;;;;;;9.52;2.53;;;;;;;22.90;52.93;101910.75;5069047;28;20447;-61
2021/09/12 09:02:04;;;;;;;5.70;2.28;;;;;;;22.90;52.72;101916.09;5069032;28;20165;-61
2021/09/12 09:04:34;;;;;;;4.00;2.05;;;;;;;22.90;52.66;101920.63;5068227;28;20025;-61
2021/09/12 09:07:07;;;;;;;6.57;2.75;;;;;;;22.88;52.49;101907.44;5067286;28;20021;-61
2021/09/12 09:09:50;;;;;;;5.85;2.22;;;;;;;22.86;52.62;101911.28;5049091;28;20162;-61
2021/09/12 09:12:38;;;;;;;10.10;2.30;;;;;;;22.83;52.24;101914.34;5020577;28;20032;-60
2021/09/12 09:15:14;;;;;;;6.38;2.13;;;;;;;22.85;52.18;101917.66;5046581;28;20044;-60
2021/09/12 09:17:45;;;;;;;8.30;2.65;;;;;;;22.85;52.41;101913.13;5049409;28;20214;-62
2021/09/12 09:20:31;;;;;;;4.78;2.00;;;;;;;22.81;52.39;101919.88;5049060;28;20119;-61
2021/09/12 09:22:57;;;;;;;5.80;2.20;;;;;;;22.84;52.14;101932.88;5049233;28;20032;-61
2021/09/12 09:25:26;;;;;;;6.28;2.22;;;;;;;22.85;52.56;101928.38;5031676;28;20052;-61
2021/09/12 09:28:21;;;;;;;5.70;1.85;;;;;;;22.79;52.56;101921.91;5049437;28;20029;-62
2021/09/12 09:30:46;;;;;;;5.80;1.80;;;;;;;22.83;52.28;101931.22;5027692;28;20065;-62
2021/09/12 09:33:23;;;;;;;6.35;2.35;;;;;;;22.83;52.60;101928.56;5049146;28;20083;-62
2021/09/12 09:35:53;;;;;;;3.95;2.05;;;;;;;22.85;52.46;101936.38;5035250;28;20079;-62
2021/09/12 09:38:20;;;;;;;5.38;1.90;;;;;;;22.85;52.11;101941.75;5050274;28;20041;-62
2021/09/12 09:41:04;;;;;;;3.08;1.55;;;;;;;22.81;52.04;101929.75;5049487;28;20029;-62
2021/09/12 09:43:39;;;;;;;5.03;1.63;;;;;;;22.81;52.25;101938.59;5049700;28;20041;-62
2021/09/12 09:46:05;;;;;;;5.00;2.03;;;;;;;22.83;51.88;101941.94;5036290;28;20033;-62
2021/09/12 09:48:35;;;;;;;5.45;1.90;;;;;;;22.82;52.06;101936.75;5049343;28;20083;-62
2021/09/12 09:51:04;;;;;;;5.30;1.20;;;;;;;22.81;51.60;101941.28;5049061;28;20126;-62
2021/09/12 09:53:36;;;;;;;6.18;1.52;;;;;;;22.78;51.66;101943.50;5049375;28;20141;-62
2021/09/12 09:56:05;;;;;;;4.75;1.42;;;;;;;22.76;51.53;101946.38;5049010;28;20033;-62
2021/09/12 09:58:32;;;;;;;2.90;1.52;;;;;;;22.78;51.35;101949.69;5049071;28;20033;-62
2021/09/12 10:01:00;;;;;;;2.95;1.35;;;;;;;22.77;51.38;101948.03;5044373;28;20029;-62
2021/09/12 10:03:26;;;;;;;2.88;1.30;;;;;;;22.76;51.21;101946.38;5049129;28;20036;-62
2021/09/12 10:05:52;;;;;;;2.58;1.25;;;;;;;22.75;51.23;101950.06;5048717;28;20473;-62
2021/09/12 10:08:18;;;;;;;2.22;1.00;;;;;;;22.75;50.98;101951.91;5047019;28;20052;-62
2021/09/12 10:10:44;;;;;;;2.58;1.17;;;;;;;22.72;51.00;101942.41;5083294;28;20084;-62
2021/09/12 10:13:12;;;;;;;3.50;1.55;;;;;;;22.72;50.97;101939.72;5064835;28;20525;-62
2021/09/12 10:15:39;;;;;;;3.35;1.33;;;;;;;22.73;51.10;101943.25;5081467;28;20062;-62
2021/09/12 10:18:06;;;;;;;3.40;1.30;;;;;;;22.73;51.10;101944.09;5067297;28;20032;-62
2021/09/12 10:20:33;;;;;;;2.08;1.10;;;;;;;22.73;51.53;101944.09;5076524;28;20152;-62
2021/09/12 10:23:07;;;;;;;2.53;1.40;;;;;;;22.71;51.02;101946.91;5064200;28;20038;-62
2021/09/12 10:25:59;;;;;;;5.03;1.27;;;;;;;22.65;51.08;101953.03;5068463;28;20119;-62
2021/09/12 10:28:36;;;;;;;3.60;1.13;;;;;;;22.64;51.12;101958.59;5070674;28;20464;-63
2021/09/12 10:31:26;;;;;;;2.85;1.13;;;;;;;22.60;51.01;101958.13;5069962;28;20036;-62
2021/09/12 10:34:04;;;;;;;2.45;1.00;;;;;;;22.61;50.80;101948.28;5068220;28;20463;-62
2021/09/12 10:36:30;;;;;;;4.65;1.20;;;;;;;22.62;50.66;101949.94;5068889;28;20082;-62
2021/09/12 10:38:56;;;;;;;2.53;1.02;;;;;;;22.61;50.89;101954.44;5068224;28;20024;-62
2021/09/12 10:41:21;;;;;;;6.15;1.75;;;;;;;22.60;50.86;101943.94;5078697;28;20474;-62
2021/09/12 10:43:49;;;;;;;3.65;1.30;;;;;;;22.61;51.34;101946.44;5069955;28;20055;-63
2021/09/12 10:46:14;;;;;;;3.70;1.00;;;;;;;22.61;50.99;101941.06;5071022;28;20035;-62
2021/09/12 10:48:49;;;;;;;2.72;1.40;;;;;;;22.59;50.74;101948.47;5070166;28;20092;-63
2021/09/12 10:51:17;;;;;;;3.20;1.10;;;;;;;22.61;51.07;101949.09;5055774;28;20036;-62
2021/09/12 10:53:45;;;;;;;1.90;1.00;;;;;;;22.63;50.94;101951.59;5068925;28;20044;-62
2021/09/12 10:56:17;;;;;;;1.55;1.00;;;;;;;22.61;50.87;101949.09;5073198;28;20059;-62
2021/09/12 10:58:59;;;;;;;6.57;1.33;;;;;;;22.60;51.01;101944.78;5073756;28;20047;-62
2021/09/12 11:01:26;;;;;;;3.95;1.50;;;;;;;22.61;50.95;101953.63;5070173;28;20080;-62
2021/09/12 11:03:56;;;;;;;4.82;1.30;;;;;;;22.62;51.09;101949.94;5079626;28;20411;-62
2021/09/12 11:06:22;;;;;;;4.15;1.60;;;;;;;22.63;51.01;101951.59;5066534;28;20044;-62
2021/09/12 11:08:48;;;;;;;3.50;1.30;;;;;;;22.61;51.08;101951.78;5041841;28;20064;-62
2021/09/12 11:11:13;;;;;;;3.97;1.35;;;;;;;22.61;51.23;101949.09;5055300;28;20045;-62
2021/09/12 11:13:39;;;;;;;2.03;1.00;;;;;;;22.62;51.06;101937.38;5049995;28;20021;-61
2021/09/12 11:16:09;;;;;;;1.63;1.00;;;;;;;22.63;50.77;101940.88;5059794;28;20037;-61
2021/09/12 11:18:54;;;;;;;2.67;0.93;;;;;;;22.58;50.97;101930.75;5050156;28;20039;-61
2021/09/12 11:21:35;;;;;;;1.70;0.90;;;;;;;22.59;50.87;101920.91;5049548;28;20040;-61
2021/09/12 11:24:04;;;;;;;3.03;0.88;;;;;;;22.60;51.01;101928.72;5053815;28;20037;-61